New Cumberland, Pennsylvania
Current Conditions -  °F | °C
As of 9:56 PM on Monday 26 Jan 2015 (Local Time) from KCXY Reporting Station
Haze Haze  
Wind Chill: 21°   Ceiling: 2100
Heat Index: 26°   Visibility: 5mi
Dew Point: 21°   Wind: 5mph
Humidity: 81%   Direction: 350°N
Pressure: 29.8"   Gusts: NA
Location:  40.23°N, 76.87°W
Report Text: KCXY 270256Z AUTO 35004KT 5SM HZ OVC021 M03/M06 A2980 RMK AO2 SNE50 SLP097 P0000 60000 T10331061 53001
Loading
Personal Weather Stations






























Interactive Weather Map New forecast layout! Learn more

10-Day Weather Forecast

Advertisements
Track Severe Weather on mobile